Time;durP1;ratioP1;P1;durP2;ratioP2;P2;SDS_P1;SDS_P2;PMS_P1;PMS_P2;Temp;Humidity;BMP_temperature;BMP_pressure;BME280_temperature;BME280_humidity;BME280_pressure;Samples;Min_cycle;Max_cycle;Signal;HPM_P1;HPM_P2
2023/11/07 17:34:35;;;;;;;23.98;7.32;;;;;;;;;;10476018;28;20045;-72
2023/11/07 17:39:36;;;;;;;19.17;6.95;;;;;;;;;;10477025;28;20041;-72
2023/11/07 17:44:37;;;;;;;24.85;9.75;;;;;;;;;;10470527;28;20020;-70
2023/11/07 17:49:38;;;;;;;19.73;6.82;;;;;;;;;;10456920;28;20028;-71
2023/11/07 17:54:38;;;;;;;29.58;7.72;;;;;;;;;;10474495;28;20397;-71
2023/11/07 17:59:38;;;;;;;29.37;8.30;;;;;;;;;;10480813;28;20029;-71
2023/11/07 18:04:38;;;;;;;33.08;11.77;;;;;;;;;;10479404;28;20082;-69
2023/11/07 18:09:39;;;;;;;30.70;10.07;;;;;;;;;;10471548;28;20044;-71
2023/11/07 18:14:39;;;;;;;26.88;8.43;;;;;;;;;;10474130;28;20043;-73
2023/11/07 18:19:39;;;;;;;38.63;9.95;;;;;;;;;;10475965;28;20044;-76
2023/11/07 18:24:40;;;;;;;28.02;8.65;;;;;;;;;;10473165;28;20259;-71
2023/11/07 18:29:41;;;;;;;40.07;11.20;;;;;;;;;;10482524;28;20032;-71
2023/11/07 18:34:41;;;;;;;37.85;9.57;;;;;;;;;;10475464;28;20040;-71
2023/11/07 18:39:41;;;;;;;46.15;10.40;;;;;;;;;;10473201;28;20025;-76
2023/11/07 18:44:41;;;;;;;33.30;10.55;;;;;;;;;;10477450;28;20576;-79
2023/11/07 18:49:42;;;;;;;37.93;11.10;;;;;;;;;;10477725;28;20029;-73
2023/11/07 18:54:42;;;;;;;35.50;9.20;;;;;;;;;;10472302;28;20023;-75
2023/11/07 18:59:43;;;;;;;33.20;9.00;;;;;;;;;;10472933;28;20020;-73
2023/11/07 19:04:43;;;;;;;41.87;13.07;;;;;;;;;;10473428;28;20091;-74
2023/11/07 19:09:45;;;;;;;31.85;10.63;;;;;;;;;;10479783;28;20031;-73
2023/11/07 19:14:46;;;;;;;44.67;11.00;;;;;;;;;;10462139;28;20032;-73
2023/11/07 19:19:46;;;;;;;36.73;11.17;;;;;;;;;;10471089;28;20323;-71
2023/11/07 19:24:46;;;;;;;29.83;9.67;;;;;;;;;;10473216;28;20039;-70
2023/11/07 19:29:46;;;;;;;29.20;10.45;;;;;;;;;;10464169;28;20083;-69
2023/11/07 19:34:47;;;;;;;24.88;10.98;;;;;;;;;;10487465;28;20671;-68
2023/11/07 19:39:49;;;;;;;24.75;11.00;;;;;;;;;;10484020;28;20086;-68
2023/11/07 19:44:50;;;;;;;45.97;17.52;;;;;;;;;;10468997;28;20306;-69
2023/11/07 19:49:50;;;;;;;34.88;16.80;;;;;;;;;;10482122;28;20029;-69
2023/11/07 19:54:53;;;;;;;39.83;19.25;;;;;;;;;;10482732;28;20028;-69
2023/11/07 19:59:53;;;;;;;37.97;17.13;;;;;;;;;;10471061;28;20043;-69
2023/11/07 20:04:53;;;;;;;40.83;18.13;;;;;;;;;;10480356;28;20215;-69
2023/11/07 20:09:54;;;;;;;41.13;18.17;;;;;;;;;;10477202;28;20070;-69
2023/11/07 20:14:54;;;;;;;47.08;18.80;;;;;;;;;;10479974;28;20083;-69
2023/11/07 20:19:54;;;;;;;46.07;19.43;;;;;;;;;;10463921;28;20032;-68
2023/11/07 20:24:55;;;;;;;43.57;19.00;;;;;;;;;;10478684;28;20522;-69
2023/11/07 20:29:55;;;;;;;41.58;19.33;;;;;;;;;;10479319;28;20021;-68
2023/11/07 20:34:57;;;;;;;42.65;20.30;;;;;;;;;;10473693;28;20056;-69
2023/11/07 20:39:58;;;;;;;48.20;21.65;;;;;;;;;;10469370;28;20033;-69
2023/11/07 20:44:59;;;;;;;29.33;13.93;;;;;;;;;;10481243;28;20088;-75
2023/11/07 20:49:59;;;;;;;39.55;17.10;;;;;;;;;;10477337;28;20250;-74
2023/11/07 20:55:00;;;;;;;41.05;16.23;;;;;;;;;;10480635;28;20107;-73
2023/11/07 21:00:00;;;;;;;39.13;15.65;;;;;;;;;;10477153;28;20282;-71
2023/11/07 21:05:00;;;;;;;40.95;16.70;;;;;;;;;;10479206;28;20034;-71
2023/11/07 21:10:01;;;;;;;35.47;15.80;;;;;;;;;;10487238;28;20318;-70
2023/11/07 21:15:02;;;;;;;44.30;15.18;;;;;;;;;;10501334;28;20330;-74
2023/11/07 21:20:10;;;;;;;35.65;13.52;;;;;;;;;;10500542;28;20032;-75
2023/11/07 21:25:10;;;;;;;35.90;12.43;;;;;;;;;;10492847;28;20368;-74
2023/11/07 21:30:11;;;;;;;27.70;12.77;;;;;;;;;;10500834;28;20513;-70
2023/11/07 21:35:13;;;;;;;35.33;13.95;;;;;;;;;;10500192;28;20257;-70
2023/11/07 21:40:13;;;;;;;26.45;11.23;;;;;;;;;;10500746;28;20028;-70
2023/11/07 21:45:14;;;;;;;29.23;12.93;;;;;;;;;;10502180;28;20032;-71
2023/11/07 21:50:14;;;;;;;27.88;10.95;;;;;;;;;;10501262;28;20043;-71
2023/11/07 21:55:15;;;;;;;27.52;10.50;;;;;;;;;;10501026;28;20210;-71
2023/11/07 22:00:16;;;;;;;24.92;9.63;;;;;;;;;;10501143;28;20378;-70
2023/11/07 22:05:16;;;;;;;20.58;7.82;;;;;;;;;;10500586;28;20032;-71
2023/11/07 22:10:17;;;;;;;26.75;11.27;;;;;;;;;;10482941;28;20306;-70
2023/11/07 22:15:17;;;;;;;19.40;8.00;;;;;;;;;;10500442;28;20025;-70
2023/11/07 22:20:18;;;;;;;24.63;8.10;;;;;;;;;;10500224;28;20090;-70
2023/11/07 22:25:19;;;;;;;16.33;7.73;;;;;;;;;;10500038;28;20381;-70
2023/11/07 22:30:19;;;;;;;18.85;8.70;;;;;;;;;;10499492;28;20032;-70
2023/11/07 22:35:21;;;;;;;19.92;8.23;;;;;;;;;;10482822;28;20033;-70
2023/11/07 22:40:21;;;;;;;25.63;8.43;;;;;;;;;;10500955;28;20333;-70
2023/11/07 22:45:22;;;;;;;21.75;6.82;;;;;;;;;;10499470;28;20213;-70
2023/11/07 22:50:23;;;;;;;23.02;7.80;;;;;;;;;;10499375;28;20024;-70
2023/11/07 22:55:25;;;;;;;23.23;7.05;;;;;;;;;;10481349;28;20024;-71
2023/11/07 23:00:37;;;;;;;23.00;7.85;;;;;;;;;;10499400;28;20219;-70
2023/11/07 23:05:39;;;;;;;20.75;8.75;;;;;;;;;;10499528;28;20139;-69
2023/11/07 23:10:40;;;;;;;19.88;7.45;;;;;;;;;;10499017;28;20242;-70
2023/11/07 23:15:40;;;;;;;25.25;8.02;;;;;;;;;;10498160;28;20029;-70
2023/11/07 23:20:41;;;;;;;26.70;6.73;;;;;;;;;;10499594;28;20051;-69
2023/11/07 23:25:43;;;;;;;24.23;8.25;;;;;;;;;;10498578;28;20292;-70
2023/11/07 23:30:44;;;;;;;22.27;10.05;;;;;;;;;;10495101;28;20392;-70
2023/11/07 23:35:44;;;;;;;23.73;7.68;;;;;;;;;;10472628;28;20025;-69
2023/11/07 23:40:45;;;;;;;21.33;7.35;;;;;;;;;;10475093;28;20584;-70
2023/11/07 23:45:45;;;;;;;19.60;7.20;;;;;;;;;;10466244;28;20176;-71
2023/11/07 23:50:45;;;;;;;17.90;7.70;;;;;;;;;;10464872;28;20023;-70
2023/11/07 23:55:46;;;;;;;19.08;7.07;;;;;;;;;;10477022;28;20256;-70
